sensor_id;sensor_type;location;lat;lon;timestamp;P1;durP1;ratioP1;P2;durP2;ratioP2
3443;SDS011;1736;52.068;6.968;2022-12-29T00:01:59;2.93;;;2.10;;
3443;SDS011;1736;52.068;6.968;2022-12-29T00:04:25;2.10;;;2.00;;
3443;SDS011;1736;52.068;6.968;2022-12-29T00:06:53;2.37;;;2.23;;
3443;SDS011;1736;52.068;6.968;2022-12-29T00:09:20;2.70;;;1.93;;
3443;SDS011;1736;52.068;6.968;2022-12-29T00:11:47;2.47;;;2.17;;
3443;SDS011;1736;52.068;6.968;2022-12-29T00:14:15;2.30;;;2.20;;
3443;SDS011;1736;52.068;6.968;2022-12-29T00:16:59;2.50;;;2.30;;
3443;SDS011;1736;52.068;6.968;2022-12-29T00:19:26;2.67;;;2.30;;
3443;SDS011;1736;52.068;6.968;2022-12-29T00:22:12;2.20;;;2.10;;
3443;SDS011;1736;52.068;6.968;2022-12-29T00:24:57;2.40;;;2.20;;
3443;SDS011;1736;52.068;6.968;2022-12-29T00:27:42;1.97;;;1.87;;
3443;SDS011;1736;52.068;6.968;2022-12-29T00:30:26;2.40;;;2.20;;
3443;SDS011;1736;52.068;6.968;2022-12-29T00:33:11;1.83;;;1.73;;
3443;SDS011;1736;52.068;6.968;2022-12-29T00:35:56;2.10;;;2.00;;
3443;SDS011;1736;52.068;6.968;2022-12-29T00:38:27;2.27;;;2.17;;
3443;SDS011;1736;52.068;6.968;2022-12-29T00:41:12;2.50;;;2.37;;
3443;SDS011;1736;52.068;6.968;2022-12-29T00:43:56;1.80;;;1.70;;
3443;SDS011;1736;52.068;6.968;2022-12-29T00:46:32;2.13;;;1.80;;
3443;SDS011;1736;52.068;6.968;2022-12-29T00:49:02;2.00;;;1.90;;
3443;SDS011;1736;52.068;6.968;2022-12-29T00:51:47;2.20;;;2.10;;
3443;SDS011;1736;52.068;6.968;2022-12-29T00:54:16;2.60;;;2.10;;
3443;SDS011;1736;52.068;6.968;2022-12-29T00:56:43;1.93;;;1.80;;
3443;SDS011;1736;52.068;6.968;2022-12-29T00:59:11;2.20;;;2.10;;
3443;SDS011;1736;52.068;6.968;2022-12-29T01:01:37;1.93;;;1.83;;
3443;SDS011;1736;52.068;6.968;2022-12-29T01:04:05;2.40;;;2.20;;
3443;SDS011;1736;52.068;6.968;2022-12-29T01:06:32;2.83;;;1.90;;
3443;SDS011;1736;52.068;6.968;2022-12-29T01:09:00;2.80;;;1.80;;
3443;SDS011;1736;52.068;6.968;2022-12-29T01:11:46;1.80;;;1.70;;
3443;SDS011;1736;52.068;6.968;2022-12-29T01:14:13;1.90;;;1.80;;
3443;SDS011;1736;52.068;6.968;2022-12-29T01:16:40;1.53;;;1.43;;
3443;SDS011;1736;52.068;6.968;2022-12-29T01:19:06;1.37;;;1.37;;
3443;SDS011;1736;52.068;6.968;2022-12-29T01:21:33;1.50;;;1.50;;
3443;SDS011;1736;52.068;6.968;2022-12-29T01:23:59;2.80;;;1.67;;
3443;SDS011;1736;52.068;6.968;2022-12-29T01:26:26;1.97;;;1.87;;
3443;SDS011;1736;52.068;6.968;2022-12-29T01:28:54;1.70;;;1.60;;
3443;SDS011;1736;52.068;6.968;2022-12-29T01:31:20;1.90;;;1.80;;
3443;SDS011;1736;52.068;6.968;2022-12-29T01:33:47;2.20;;;2.10;;
3443;SDS011;1736;52.068;6.968;2022-12-29T01:36:15;2.30;;;2.20;;
3443;SDS011;1736;52.068;6.968;2022-12-29T01:38:43;2.80;;;2.70;;
3443;SDS011;1736;52.068;6.968;2022-12-29T01:41:10;3.37;;;2.70;;
3443;SDS011;1736;52.068;6.968;2022-12-29T01:43:39;3.53;;;3.23;;
3443;SDS011;1736;52.068;6.968;2022-12-29T01:46:09;3.27;;;3.03;;
3443;SDS011;1736;52.068;6.968;2022-12-29T01:48:42;3.00;;;2.80;;
3443;SDS011;1736;52.068;6.968;2022-12-29T01:51:08;3.20;;;2.90;;
3443;SDS011;1736;52.068;6.968;2022-12-29T01:53:35;3.07;;;2.90;;
3443;SDS011;1736;52.068;6.968;2022-12-29T01:56:03;4.60;;;2.80;;
3443;SDS011;1736;52.068;6.968;2022-12-29T01:58:34;2.73;;;2.53;;
3443;SDS011;1736;52.068;6.968;2022-12-29T02:01:05;2.30;;;2.10;;
3443;SDS011;1736;52.068;6.968;2022-12-29T02:03:34;2.30;;;2.20;;
3443;SDS011;1736;52.068;6.968;2022-12-29T02:06:07;2.80;;;2.60;;
3443;SDS011;1736;52.068;6.968;2022-12-29T02:08:38;2.90;;;2.60;;
3443;SDS011;1736;52.068;6.968;2022-12-29T02:11:06;2.80;;;2.60;;
3443;SDS011;1736;52.068;6.968;2022-12-29T02:13:33;2.83;;;2.67;;
3443;SDS011;1736;52.068;6.968;2022-12-29T02:16:03;2.60;;;2.40;;
3443;SDS011;1736;52.068;6.968;2022-12-29T02:18:39;2.43;;;2.33;;
3443;SDS011;1736;52.068;6.968;2022-12-29T02:24:26;2.30;;;2.20;;
3443;SDS011;1736;52.068;6.968;2022-12-29T02:30:15;2.60;;;1.83;;
3443;SDS011;1736;52.068;6.968;2022-12-29T02:33:10;2.63;;;1.90;;
3443;SDS011;1736;52.068;6.968;2022-12-29T02:35:49;2.10;;;2.00;;
3443;SDS011;1736;52.068;6.968;2022-12-29T02:38:23;2.13;;;2.03;;
3443;SDS011;1736;52.068;6.968;2022-12-29T02:40:58;1.87;;;1.77;;
3443;SDS011;1736;52.068;6.968;2022-12-29T02:43:33;2.40;;;2.20;;
3443;SDS011;1736;52.068;6.968;2022-12-29T02:46:08;9.13;;;2.30;;
3443;SDS011;1736;52.068;6.968;2022-12-29T02:48:45;2.50;;;1.70;;
3443;SDS011;1736;52.068;6.968;2022-12-29T02:51:18;1.90;;;1.80;;
3443;SDS011;1736;52.068;6.968;2022-12-29T02:53:49;4.70;;;2.33;;
3443;SDS011;1736;52.068;6.968;2022-12-29T02:56:36;1.90;;;1.80;;
3443;SDS011;1736;52.068;6.968;2022-12-29T02:59:02;1.43;;;1.40;;
3443;SDS011;1736;52.068;6.968;2022-12-29T03:01:32;1.50;;;1.50;;
3443;SDS011;1736;52.068;6.968;2022-12-29T03:04:31;1.30;;;1.30;;
3443;SDS011;1736;52.068;6.968;2022-12-29T03:07:08;1.40;;;1.37;;
3443;SDS011;1736;52.068;6.968;2022-12-29T03:09:45;1.60;;;1.50;;
3443;SDS011;1736;52.068;6.968;2022-12-29T03:12:24;1.57;;;1.47;;
3443;SDS011;1736;52.068;6.968;2022-12-29T03:15:15;1.53;;;1.43;;
3443;SDS011;1736;52.068;6.968;2022-12-29T03:18:06;1.20;;;1.20;;
3443;SDS011;1736;52.068;6.968;2022-12-29T03:20:39;1.50;;;1.40;;
3443;SDS011;1736;52.068;6.968;2022-12-29T03:23:12;1.30;;;1.30;;
3443;SDS011;1736;52.068;6.968;2022-12-29T03:25:40;1.50;;;1.40;;
3443;SDS011;1736;52.068;6.968;2022-12-29T03:28:12;1.60;;;1.30;;
3443;SDS011;1736;52.068;6.968;2022-12-29T03:30:43;1.27;;;1.23;;
3443;SDS011;1736;52.068;6.968;2022-12-29T03:33:12;1.90;;;1.20;;
3443;SDS011;1736;52.068;6.968;2022-12-29T03:35:46;1.23;;;1.07;;
3443;SDS011;1736;52.068;6.968;2022-12-29T03:38:16;2.20;;;1.57;;
3443;SDS011;1736;52.068;6.968;2022-12-29T03:40:47;2.07;;;1.43;;
3443;SDS011;1736;52.068;6.968;2022-12-29T03:43:16;1.63;;;1.33;;
3443;SDS011;1736;52.068;6.968;2022-12-29T03:45:44;1.50;;;1.40;;
3443;SDS011;1736;52.068;6.968;2022-12-29T03:48:10;1.20;;;1.20;;
3443;SDS011;1736;52.068;6.968;2022-12-29T03:50:37;0.90;;;0.90;;
3443;SDS011;1736;52.068;6.968;2022-12-29T03:53:05;1.47;;;1.37;;
3443;SDS011;1736;52.068;6.968;2022-12-29T03:55:31;1.63;;;1.30;;
3443;SDS011;1736;52.068;6.968;2022-12-29T03:57:58;1.33;;;1.23;;
3443;SDS011;1736;52.068;6.968;2022-12-29T04:00:24;1.20;;;1.20;;
3443;SDS011;1736;52.068;6.968;2022-12-29T04:02:51;4.70;;;1.40;;
3443;SDS011;1736;52.068;6.968;2022-12-29T04:05:17;1.60;;;1.17;;
3443;SDS011;1736;52.068;6.968;2022-12-29T04:07:44;3.57;;;1.43;;
3443;SDS011;1736;52.068;6.968;2022-12-29T04:10:12;1.33;;;1.23;;
3443;SDS011;1736;52.068;6.968;2022-12-29T04:12:38;3.80;;;1.37;;
3443;SDS011;1736;52.068;6.968;2022-12-29T04:15:07;1.13;;;1.13;;
3443;SDS011;1736;52.068;6.968;2022-12-29T04:17:34;1.40;;;1.30;;
3443;SDS011;1736;52.068;6.968;2022-12-29T04:20:01;2.53;;;1.40;;
3443;SDS011;1736;52.068;6.968;2022-12-29T04:22:43;2.40;;;1.60;;
3443;SDS011;1736;52.068;6.968;2022-12-29T04:25:09;1.53;;;1.40;;
3443;SDS011;1736;52.068;6.968;2022-12-29T04:27:37;1.40;;;1.30;;
3443;SDS011;1736;52.068;6.968;2022-12-29T04:30:04;1.10;;;1.10;;
3443;SDS011;1736;52.068;6.968;2022-12-29T04:32:32;1.40;;;1.30;;
3443;SDS011;1736;52.068;6.968;2022-12-29T04:34:58;1.57;;;1.20;;
3443;SDS011;1736;52.068;6.968;2022-12-29T04:37:25;2.83;;;1.27;;
3443;SDS011;1736;52.068;6.968;2022-12-29T04:39:51;1.30;;;1.20;;
3443;SDS011;1736;52.068;6.968;2022-12-29T04:42:19;1.20;;;1.20;;
3443;SDS011;1736;52.068;6.968;2022-12-29T04:44:47;2.60;;;1.23;;
3443;SDS011;1736;52.068;6.968;2022-12-29T04:47:14;2.30;;;1.20;;
3443;SDS011;1736;52.068;6.968;2022-12-29T04:49:40;2.77;;;1.40;;
3443;SDS011;1736;52.068;6.968;2022-12-29T04:52:07;2.27;;;1.50;;
3443;SDS011;1736;52.068;6.968;2022-12-29T04:54:33;1.83;;;1.30;;
3443;SDS011;1736;52.068;6.968;2022-12-29T04:57:00;1.60;;;1.30;;
3443;SDS011;1736;52.068;6.968;2022-12-29T04:59:28;1.33;;;1.30;;
3443;SDS011;1736;52.068;6.968;2022-12-29T05:01:57;2.30;;;1.40;;
3443;SDS011;1736;52.068;6.968;2022-12-29T05:04:26;5.13;;;1.20;;
3443;SDS011;1736;52.068;6.968;2022-12-29T05:06:52;1.60;;;1.50;;
3443;SDS011;1736;52.068;6.968;2022-12-29T05:09:19;4.00;;;1.37;;
3443;SDS011;1736;52.068;6.968;2022-12-29T05:11:45;1.53;;;1.20;;
3443;SDS011;1736;52.068;6.968;2022-12-29T05:14:12;1.40;;;1.23;;
3443;SDS011;1736;52.068;6.968;2022-12-29T05:16:39;2.43;;;1.10;;
3443;SDS011;1736;52.068;6.968;2022-12-29T05:19:06;2.43;;;1.80;;
3443;SDS011;1736;52.068;6.968;2022-12-29T05:21:32;4.23;;;1.20;;
3443;SDS011;1736;52.068;6.968;2022-12-29T05:23:59;5.67;;;1.50;;
3443;SDS011;1736;52.068;6.968;2022-12-29T05:26:26;1.67;;;1.23;;
3443;SDS011;1736;52.068;6.968;2022-12-29T05:28:52;1.57;;;1.47;;
3443;SDS011;1736;52.068;6.968;2022-12-29T05:31:19;1.10;;;1.00;;
3443;SDS011;1736;52.068;6.968;2022-12-29T05:33:46;1.67;;;1.23;;
3443;SDS011;1736;52.068;6.968;2022-12-29T05:36:13;2.40;;;1.23;;
3443;SDS011;1736;52.068;6.968;2022-12-29T05:38:39;1.60;;;1.20;;
3443;SDS011;1736;52.068;6.968;2022-12-29T05:41:06;1.37;;;0.90;;
3443;SDS011;1736;52.068;6.968;2022-12-29T05:43:32;3.03;;;0.97;;
3443;SDS011;1736;52.068;6.968;2022-12-29T05:45:59;1.60;;;1.20;;
3443;SDS011;1736;52.068;6.968;2022-12-29T05:48:26;2.77;;;1.13;;
3443;SDS011;1736;52.068;6.968;2022-12-29T05:50:54;1.00;;;1.00;;
3443;SDS011;1736;52.068;6.968;2022-12-29T05:53:20;4.63;;;1.40;;
3443;SDS011;1736;52.068;6.968;2022-12-29T05:55:47;1.70;;;1.30;;
3443;SDS011;1736;52.068;6.968;2022-12-29T05:58:14;4.47;;;1.30;;
3443;SDS011;1736;52.068;6.968;2022-12-29T06:00:41;2.80;;;1.30;;
3443;SDS011;1736;52.068;6.968;2022-12-29T06:03:07;1.87;;;1.20;;
3443;SDS011;1736;52.068;6.968;2022-12-29T06:05:36;2.10;;;1.63;;
3443;SDS011;1736;52.068;6.968;2022-12-29T06:08:05;1.90;;;1.10;;
3443;SDS011;1736;52.068;6.968;2022-12-29T06:10:31;3.57;;;1.27;;
3443;SDS011;1736;52.068;6.968;2022-12-29T06:12:58;6.10;;;1.30;;
3443;SDS011;1736;52.068;6.968;2022-12-29T06:15:24;4.73;;;1.23;;
3443;SDS011;1736;52.068;6.968;2022-12-29T06:17:51;2.87;;;1.50;;
3443;SDS011;1736;52.068;6.968;2022-12-29T06:20:18;4.70;;;1.70;;
3443;SDS011;1736;52.068;6.968;2022-12-29T06:22:45;5.20;;;1.73;;
3443;SDS011;1736;52.068;6.968;2022-12-29T06:25:14;3.93;;;1.70;;
3443;SDS011;1736;52.068;6.968;2022-12-29T06:27:42;4.60;;;2.00;;
3443;SDS011;1736;52.068;6.968;2022-12-29T06:30:09;3.80;;;1.67;;
3443;SDS011;1736;52.068;6.968;2022-12-29T06:32:36;4.43;;;1.30;;
3443;SDS011;1736;52.068;6.968;2022-12-29T06:35:06;2.83;;;1.40;;
3443;SDS011;1736;52.068;6.968;2022-12-29T06:37:33;4.17;;;1.70;;
3443;SDS011;1736;52.068;6.968;2022-12-29T06:39:59;3.00;;;1.60;;
3443;SDS011;1736;52.068;6.968;2022-12-29T06:42:27;2.07;;;1.70;;
3443;SDS011;1736;52.068;6.968;2022-12-29T06:44:53;2.80;;;1.40;;
3443;SDS011;1736;52.068;6.968;2022-12-29T06:47:23;3.30;;;1.57;;
3443;SDS011;1736;52.068;6.968;2022-12-29T06:49:50;5.80;;;1.80;;
3443;SDS011;1736;52.068;6.968;2022-12-29T06:52:16;6.63;;;1.90;;
3443;SDS011;1736;52.068;6.968;2022-12-29T06:54:42;1.43;;;1.37;;
3443;SDS011;1736;52.068;6.968;2022-12-29T06:57:09;3.40;;;2.40;;
3443;SDS011;1736;52.068;6.968;2022-12-29T06:59:37;6.97;;;1.77;;
3443;SDS011;1736;52.068;6.968;2022-12-29T07:02:04;4.73;;;1.70;;
3443;SDS011;1736;52.068;6.968;2022-12-29T07:04:30;5.80;;;1.73;;
3443;SDS011;1736;52.068;6.968;2022-12-29T07:06:57;3.77;;;1.50;;
3443;SDS011;1736;52.068;6.968;2022-12-29T07:09:23;7.17;;;2.00;;
3443;SDS011;1736;52.068;6.968;2022-12-29T07:11:50;3.10;;;1.40;;
3443;SDS011;1736;52.068;6.968;2022-12-29T07:14:16;3.33;;;1.27;;
3443;SDS011;1736;52.068;6.968;2022-12-29T07:16:44;2.30;;;1.30;;
3443;SDS011;1736;52.068;6.968;2022-12-29T07:19:11;1.57;;;1.47;;
3443;SDS011;1736;52.068;6.968;2022-12-29T07:21:37;3.77;;;1.70;;
3443;SDS011;1736;52.068;6.968;2022-12-29T07:24:04;3.93;;;1.47;;
3443;SDS011;1736;52.068;6.968;2022-12-29T07:26:31;2.43;;;1.30;;
3443;SDS011;1736;52.068;6.968;2022-12-29T07:28:59;2.53;;;1.57;;
3443;SDS011;1736;52.068;6.968;2022-12-29T07:31:28;5.50;;;1.40;;
3443;SDS011;1736;52.068;6.968;2022-12-29T07:33:57;3.23;;;2.07;;
3443;SDS011;1736;52.068;6.968;2022-12-29T07:36:24;3.37;;;1.40;;
3443;SDS011;1736;52.068;6.968;2022-12-29T07:38:50;4.20;;;1.40;;
3443;SDS011;1736;52.068;6.968;2022-12-29T07:41:17;21.87;;;1.77;;
3443;SDS011;1736;52.068;6.968;2022-12-29T07:43:46;3.43;;;1.70;;
3443;SDS011;1736;52.068;6.968;2022-12-29T07:46:13;6.07;;;1.80;;
3443;SDS011;1736;52.068;6.968;2022-12-29T07:48:40;8.27;;;1.60;;
3443;SDS011;1736;52.068;6.968;2022-12-29T07:51:08;6.50;;;1.70;;
3443;SDS011;1736;52.068;6.968;2022-12-29T07:53:35;2.73;;;1.80;;
3443;SDS011;1736;52.068;6.968;2022-12-29T07:56:01;2.90;;;1.30;;
3443;SDS011;1736;52.068;6.968;2022-12-29T07:58:28;7.90;;;1.47;;
3443;SDS011;1736;52.068;6.968;2022-12-29T08:00:55;4.60;;;1.63;;
3443;SDS011;1736;52.068;6.968;2022-12-29T08:03:22;2.50;;;1.17;;
3443;SDS011;1736;52.068;6.968;2022-12-29T08:05:49;6.73;;;1.40;;
3443;SDS011;1736;52.068;6.968;2022-12-29T08:08:21;5.50;;;1.20;;
3443;SDS011;1736;52.068;6.968;2022-12-29T08:10:47;5.77;;;1.50;;
3443;SDS011;1736;52.068;6.968;2022-12-29T08:13:14;6.13;;;1.50;;
3443;SDS011;1736;52.068;6.968;2022-12-29T08:15:40;1.97;;;1.40;;
3443;SDS011;1736;52.068;6.968;2022-12-29T08:18:07;6.90;;;1.73;;
3443;SDS011;1736;52.068;6.968;2022-12-29T08:20:33;2.33;;;1.30;;
3443;SDS011;1736;52.068;6.968;2022-12-29T08:23:00;2.53;;;1.77;;
3443;SDS011;1736;52.068;6.968;2022-12-29T08:25:28;1.80;;;1.40;;
3443;SDS011;1736;52.068;6.968;2022-12-29T08:27:54;6.50;;;1.80;;
3443;SDS011;1736;52.068;6.968;2022-12-29T08:30:21;4.37;;;1.73;;
3443;SDS011;1736;52.068;6.968;2022-12-29T08:32:48;3.97;;;1.50;;
3443;SDS011;1736;52.068;6.968;2022-12-29T08:35:14;3.30;;;1.53;;
3443;SDS011;1736;52.068;6.968;2022-12-29T08:37:41;4.13;;;1.43;;
3443;SDS011;1736;52.068;6.968;2022-12-29T08:40:10;3.07;;;1.47;;
3443;SDS011;1736;52.068;6.968;2022-12-29T08:42:38;9.03;;;1.50;;
3443;SDS011;1736;52.068;6.968;2022-12-29T08:45:05;4.00;;;1.60;;
3443;SDS011;1736;52.068;6.968;2022-12-29T08:47:33;2.60;;;2.00;;
3443;SDS011;1736;52.068;6.968;2022-12-29T08:50:00;6.37;;;1.53;;
3443;SDS011;1736;52.068;6.968;2022-12-29T08:52:26;2.50;;;1.20;;
3443;SDS011;1736;52.068;6.968;2022-12-29T08:54:53;1.97;;;1.50;;
3443;SDS011;1736;52.068;6.968;2022-12-29T08:57:19;7.00;;;1.50;;
3443;SDS011;1736;52.068;6.968;2022-12-29T08:59:47;2.90;;;1.63;;
3443;SDS011;1736;52.068;6.968;2022-12-29T09:02:14;5.13;;;1.60;;
3443;SDS011;1736;52.068;6.968;2022-12-29T09:04:40;4.10;;;1.57;;
3443;SDS011;1736;52.068;6.968;2022-12-29T09:07:07;5.03;;;1.50;;
3443;SDS011;1736;52.068;6.968;2022-12-29T09:09:33;1.80;;;1.47;;
3443;SDS011;1736;52.068;6.968;2022-12-29T09:12:00;2.43;;;1.40;;
3443;SDS011;1736;52.068;6.968;2022-12-29T09:14:26;6.33;;;1.83;;
3443;SDS011;1736;52.068;6.968;2022-12-29T09:16:54;4.47;;;1.97;;
3443;SDS011;1736;52.068;6.968;2022-12-29T09:19:38;2.97;;;1.50;;
3443;SDS011;1736;52.068;6.968;2022-12-29T09:22:05;4.10;;;2.33;;
3443;SDS011;1736;52.068;6.968;2022-12-29T09:24:31;8.77;;;1.83;;
3443;SDS011;1736;52.068;6.968;2022-12-29T09:26:58;2.67;;;1.60;;
3443;SDS011;1736;52.068;6.968;2022-12-29T09:29:24;8.23;;;1.83;;
3443;SDS011;1736;52.068;6.968;2022-12-29T09:31:51;12.10;;;2.27;;
3443;SDS011;1736;52.068;6.968;2022-12-29T09:34:19;4.00;;;1.80;;
3443;SDS011;1736;52.068;6.968;2022-12-29T09:36:47;4.40;;;1.57;;
3443;SDS011;1736;52.068;6.968;2022-12-29T09:39:13;8.30;;;2.20;;
3443;SDS011;1736;52.068;6.968;2022-12-29T09:41:41;6.27;;;1.90;;
3443;SDS011;1736;52.068;6.968;2022-12-29T09:44:13;3.97;;;1.50;;
3443;SDS011;1736;52.068;6.968;2022-12-29T09:46:47;4.93;;;1.50;;
3443;SDS011;1736;52.068;6.968;2022-12-29T09:49:21;3.30;;;1.70;;
3443;SDS011;1736;52.068;6.968;2022-12-29T09:51:52;6.20;;;1.43;;
3443;SDS011;1736;52.068;6.968;2022-12-29T09:54:24;4.63;;;1.50;;
3443;SDS011;1736;52.068;6.968;2022-12-29T09:57:00;8.77;;;1.57;;
3443;SDS011;1736;52.068;6.968;2022-12-29T09:59:30;4.13;;;1.73;;
3443;SDS011;1736;52.068;6.968;2022-12-29T10:02:04;5.13;;;1.63;;
3443;SDS011;1736;52.068;6.968;2022-12-29T10:04:45;5.33;;;1.63;;
3443;SDS011;1736;52.068;6.968;2022-12-29T10:07:13;6.13;;;1.57;;
3443;SDS011;1736;52.068;6.968;2022-12-29T10:09:50;2.40;;;1.87;;
3443;SDS011;1736;52.068;6.968;2022-12-29T10:12:23;5.13;;;1.80;;
3443;SDS011;1736;52.068;6.968;2022-12-29T10:14:58;3.17;;;1.50;;
3443;SDS011;1736;52.068;6.968;2022-12-29T10:17:33;6.70;;;1.80;;
3443;SDS011;1736;52.068;6.968;2022-12-29T10:20:13;7.73;;;2.50;;
3443;SDS011;1736;52.068;6.968;2022-12-29T10:22:54;5.57;;;1.70;;
3443;SDS011;1736;52.068;6.968;2022-12-29T10:25:32;6.80;;;1.70;;
3443;SDS011;1736;52.068;6.968;2022-12-29T10:28:05;2.13;;;1.40;;
3443;SDS011;1736;52.068;6.968;2022-12-29T10:30:36;7.33;;;1.87;;
3443;SDS011;1736;52.068;6.968;2022-12-29T10:33:04;7.07;;;1.70;;
3443;SDS011;1736;52.068;6.968;2022-12-29T10:35:35;3.83;;;1.50;;
3443;SDS011;1736;52.068;6.968;2022-12-29T10:38:10;7.43;;;2.00;;
3443;SDS011;1736;52.068;6.968;2022-12-29T10:40:45;3.27;;;1.57;;
3443;SDS011;1736;52.068;6.968;2022-12-29T10:43:19;6.63;;;1.47;;
3443;SDS011;1736;52.068;6.968;2022-12-29T10:45:51;4.97;;;1.87;;
3443;SDS011;1736;52.068;6.968;2022-12-29T10:48:19;5.07;;;1.40;;
3443;SDS011;1736;52.068;6.968;2022-12-29T10:50:48;3.10;;;1.40;;
3443;SDS011;1736;52.068;6.968;2022-12-29T10:53:18;5.03;;;2.50;;
3443;SDS011;1736;52.068;6.968;2022-12-29T10:55:47;3.43;;;1.73;;
3443;SDS011;1736;52.068;6.968;2022-12-29T10:58:16;8.27;;;1.80;;
3443;SDS011;1736;52.068;6.968;2022-12-29T11:00:48;6.47;;;2.10;;
3443;SDS011;1736;52.068;6.968;2022-12-29T11:06:10;7.40;;;2.50;;
3443;SDS011;1736;52.068;6.968;2022-12-29T11:08:47;4.83;;;1.53;;
3443;SDS011;1736;52.068;6.968;2022-12-29T11:11:22;11.20;;;2.00;;
3443;SDS011;1736;52.068;6.968;2022-12-29T11:13:55;6.47;;;1.90;;
3443;SDS011;1736;52.068;6.968;2022-12-29T11:16:30;6.70;;;1.73;;
3443;SDS011;1736;52.068;6.968;2022-12-29T11:18:59;2.60;;;1.50;;
3443;SDS011;1736;52.068;6.968;2022-12-29T11:21:30;4.07;;;1.50;;
3443;SDS011;1736;52.068;6.968;2022-12-29T11:23:59;2.13;;;1.40;;
3443;SDS011;1736;52.068;6.968;2022-12-29T11:26:27;5.33;;;1.97;;
3443;SDS011;1736;52.068;6.968;2022-12-29T11:31:52;2.60;;;1.43;;
3443;SDS011;1736;52.068;6.968;2022-12-29T11:34:21;3.67;;;1.63;;
3443;SDS011;1736;52.068;6.968;2022-12-29T11:36:51;2.67;;;1.40;;
3443;SDS011;1736;52.068;6.968;2022-12-29T11:39:26;6.70;;;1.70;;
3443;SDS011;1736;52.068;6.968;2022-12-29T11:41:57;4.73;;;1.93;;
3443;SDS011;1736;52.068;6.968;2022-12-29T11:44:24;3.90;;;2.03;;
3443;SDS011;1736;52.068;6.968;2022-12-29T11:46:52;8.53;;;1.70;;
3443;SDS011;1736;52.068;6.968;2022-12-29T11:49:20;8.47;;;2.23;;
3443;SDS011;1736;52.068;6.968;2022-12-29T11:51:50;3.60;;;1.80;;
3443;SDS011;1736;52.068;6.968;2022-12-29T11:54:22;4.70;;;2.00;;
3443;SDS011;1736;52.068;6.968;2022-12-29T11:56:51;3.63;;;1.60;;
3443;SDS011;1736;52.068;6.968;2022-12-29T11:59:36;6.83;;;2.60;;
3443;SDS011;1736;52.068;6.968;2022-12-29T12:02:13;5.90;;;2.10;;
3443;SDS011;1736;52.068;6.968;2022-12-29T12:04:48;1.90;;;1.40;;
3443;SDS011;1736;52.068;6.968;2022-12-29T12:07:22;7.77;;;2.40;;
3443;SDS011;1736;52.068;6.968;2022-12-29T12:09:57;4.97;;;1.40;;
3443;SDS011;1736;52.068;6.968;2022-12-29T12:12:27;2.93;;;1.73;;
3443;SDS011;1736;52.068;6.968;2022-12-29T12:14:57;2.83;;;1.80;;
3443;SDS011;1736;52.068;6.968;2022-12-29T12:17:28;5.53;;;1.60;;
3443;SDS011;1736;52.068;6.968;2022-12-29T12:20:04;5.20;;;1.83;;
3443;SDS011;1736;52.068;6.968;2022-12-29T12:22:45;4.17;;;1.97;;
3443;SDS011;1736;52.068;6.968;2022-12-29T12:25:18;6.93;;;2.90;;
3443;SDS011;1736;52.068;6.968;2022-12-29T12:27:48;5.80;;;2.00;;
3443;SDS011;1736;52.068;6.968;2022-12-29T12:30:21;6.00;;;2.40;;
3443;SDS011;1736;52.068;6.968;2022-12-29T12:32:50;8.30;;;2.50;;
3443;SDS011;1736;52.068;6.968;2022-12-29T12:35:23;5.53;;;1.73;;
3443;SDS011;1736;52.068;6.968;2022-12-29T12:38:03;4.77;;;1.73;;
3443;SDS011;1736;52.068;6.968;2022-12-29T12:40:45;3.03;;;1.80;;
3443;SDS011;1736;52.068;6.968;2022-12-29T12:43:33;8.97;;;2.80;;
3443;SDS011;1736;52.068;6.968;2022-12-29T12:46:24;9.60;;;1.90;;
3443;SDS011;1736;52.068;6.968;2022-12-29T12:49:06;4.00;;;2.00;;
3443;SDS011;1736;52.068;6.968;2022-12-29T12:51:51;5.10;;;1.80;;
3443;SDS011;1736;52.068;6.968;2022-12-29T12:54:33;4.60;;;1.70;;
3443;SDS011;1736;52.068;6.968;2022-12-29T12:57:12;11.20;;;2.73;;
3443;SDS011;1736;52.068;6.968;2022-12-29T12:59:52;5.83;;;2.10;;
3443;SDS011;1736;52.068;6.968;2022-12-29T13:02:34;2.70;;;1.90;;
3443;SDS011;1736;52.068;6.968;2022-12-29T13:05:16;4.47;;;1.93;;
3443;SDS011;1736;52.068;6.968;2022-12-29T13:07:54;6.70;;;2.17;;
3443;SDS011;1736;52.068;6.968;2022-12-29T13:10:32;6.40;;;2.20;;
3443;SDS011;1736;52.068;6.968;2022-12-29T13:13:15;6.20;;;2.30;;
3443;SDS011;1736;52.068;6.968;2022-12-29T13:16:04;6.20;;;2.40;;
3443;SDS011;1736;52.068;6.968;2022-12-29T13:18:43;4.27;;;2.07;;
3443;SDS011;1736;52.068;6.968;2022-12-29T13:21:18;2.90;;;1.90;;
3443;SDS011;1736;52.068;6.968;2022-12-29T13:23:53;7.07;;;1.87;;
3443;SDS011;1736;52.068;6.968;2022-12-29T13:26:31;7.90;;;2.50;;
3443;SDS011;1736;52.068;6.968;2022-12-29T13:29:04;7.80;;;3.10;;
3443;SDS011;1736;52.068;6.968;2022-12-29T13:31:42;5.00;;;2.20;;
3443;SDS011;1736;52.068;6.968;2022-12-29T13:34:19;5.87;;;2.10;;
3443;SDS011;1736;52.068;6.968;2022-12-29T13:36:58;9.03;;;2.20;;
3443;SDS011;1736;52.068;6.968;2022-12-29T13:39:30;4.50;;;2.50;;
3443;SDS011;1736;52.068;6.968;2022-12-29T13:42:01;7.37;;;2.07;;
3443;SDS011;1736;52.068;6.968;2022-12-29T13:44:31;3.63;;;1.80;;
3443;SDS011;1736;52.068;6.968;2022-12-29T13:47:02;5.80;;;2.13;;
3443;SDS011;1736;52.068;6.968;2022-12-29T13:49:41;8.77;;;2.27;;
3443;SDS011;1736;52.068;6.968;2022-12-29T13:52:09;8.37;;;2.47;;
3443;SDS011;1736;52.068;6.968;2022-12-29T13:54:47;8.40;;;2.60;;
3443;SDS011;1736;52.068;6.968;2022-12-29T13:57:32;9.30;;;1.90;;
3443;SDS011;1736;52.068;6.968;2022-12-29T14:00:11;4.83;;;2.40;;
3443;SDS011;1736;52.068;6.968;2022-12-29T14:02:42;3.07;;;2.10;;
3443;SDS011;1736;52.068;6.968;2022-12-29T14:05:27;3.63;;;2.00;;
3443;SDS011;1736;52.068;6.968;2022-12-29T14:07:56;5.20;;;2.30;;
3443;SDS011;1736;52.068;6.968;2022-12-29T14:10:26;2.60;;;1.73;;
3443;SDS011;1736;52.068;6.968;2022-12-29T14:13:00;7.37;;;2.07;;
3443;SDS011;1736;52.068;6.968;2022-12-29T14:15:30;4.70;;;2.40;;
3443;SDS011;1736;52.068;6.968;2022-12-29T14:18:10;8.00;;;2.80;;
3443;SDS011;1736;52.068;6.968;2022-12-29T14:20:46;6.53;;;2.50;;
3443;SDS011;1736;52.068;6.968;2022-12-29T14:23:26;5.20;;;2.30;;
3443;SDS011;1736;52.068;6.968;2022-12-29T14:25:56;11.70;;;3.20;;
3443;SDS011;1736;52.068;6.968;2022-12-29T14:28:26;6.23;;;2.00;;
3443;SDS011;1736;52.068;6.968;2022-12-29T14:30:54;6.30;;;2.20;;
3443;SDS011;1736;52.068;6.968;2022-12-29T14:33:22;8.87;;;2.27;;
3443;SDS011;1736;52.068;6.968;2022-12-29T14:35:51;6.37;;;2.13;;
3443;SDS011;1736;52.068;6.968;2022-12-29T14:38:20;9.67;;;2.40;;
3443;SDS011;1736;52.068;6.968;2022-12-29T14:40:49;2.93;;;2.00;;
3443;SDS011;1736;52.068;6.968;2022-12-29T14:43:22;6.67;;;2.50;;
3443;SDS011;1736;52.068;6.968;2022-12-29T14:45:56;10.90;;;2.27;;
3443;SDS011;1736;52.068;6.968;2022-12-29T14:48:33;10.93;;;2.73;;
3443;SDS011;1736;52.068;6.968;2022-12-29T14:51:16;5.47;;;1.83;;
3443;SDS011;1736;52.068;6.968;2022-12-29T14:53:52;4.30;;;2.10;;
3443;SDS011;1736;52.068;6.968;2022-12-29T14:56:19;6.17;;;2.03;;
3443;SDS011;1736;52.068;6.968;2022-12-29T14:58:51;3.97;;;2.00;;
3443;SDS011;1736;52.068;6.968;2022-12-29T15:01:24;3.37;;;2.00;;
3443;SDS011;1736;52.068;6.968;2022-12-29T15:03:54;9.37;;;2.33;;
3443;SDS011;1736;52.068;6.968;2022-12-29T15:06:24;2.40;;;2.00;;
3443;SDS011;1736;52.068;6.968;2022-12-29T15:08:55;5.73;;;1.70;;
3443;SDS011;1736;52.068;6.968;2022-12-29T15:11:31;4.00;;;1.63;;
3443;SDS011;1736;52.068;6.968;2022-12-29T15:14:29;4.77;;;1.80;;
3443;SDS011;1736;52.068;6.968;2022-12-29T15:17:08;6.30;;;1.60;;
3443;SDS011;1736;52.068;6.968;2022-12-29T15:19:37;3.00;;;1.57;;
3443;SDS011;1736;52.068;6.968;2022-12-29T15:22:03;3.13;;;1.50;;
3443;SDS011;1736;52.068;6.968;2022-12-29T15:24:30;3.23;;;1.47;;
3443;SDS011;1736;52.068;6.968;2022-12-29T15:26:58;3.13;;;1.50;;
3443;SDS011;1736;52.068;6.968;2022-12-29T15:29:31;4.90;;;2.03;;
3443;SDS011;1736;52.068;6.968;2022-12-29T15:31:59;5.10;;;1.90;;
3443;SDS011;1736;52.068;6.968;2022-12-29T15:34:30;3.70;;;1.77;;
3443;SDS011;1736;52.068;6.968;2022-12-29T15:36:57;4.60;;;1.80;;
3443;SDS011;1736;52.068;6.968;2022-12-29T15:39:27;6.53;;;1.90;;
3443;SDS011;1736;52.068;6.968;2022-12-29T15:41:55;5.50;;;1.60;;
3443;SDS011;1736;52.068;6.968;2022-12-29T15:44:26;4.50;;;1.90;;
3443;SDS011;1736;52.068;6.968;2022-12-29T15:46:56;2.00;;;1.83;;
3443;SDS011;1736;52.068;6.968;2022-12-29T15:49:24;2.30;;;1.60;;
3443;SDS011;1736;52.068;6.968;2022-12-29T15:51:52;5.90;;;1.50;;